AVA9328 SKBO-SKCC
Flight info
| Callsign | AVA9328 |
|---|---|
| Flight time | 0h 46m |
| Altitude | 29000 |
| Route | OSUSU4R OSUSU DCT BUV DCT ESNUT ESNUT2A |
| Aircraft | A320/M-SDE3FGHIRWY/LB1 |
Departure
| Time | 2026-04-23 20:12 |
|---|---|
| Airport | El Dorado International Airport (SKBO) |
Arrival
| Time | 2026-04-23 20:58 |
|---|---|
| Airport | Camilo Daza International Airport (SKCC) |
| Time | Latitude | Longitude | Altitude | Speed | Heading |
|---|---|---|---|---|---|
| 2026-04-23 19:55 | 4.69785 | -74.14534 | 8370 ft | 0 kts | 37° |
| 2026-04-23 20:03 | 4.69784 | -74.14535 | 8370 ft | 2 kts | 37° |
| 2026-04-23 20:03 | 4.69764 | -74.14550 | 8370 ft | 4 kts | 38° |
| 2026-04-23 20:03 | 4.69751 | -74.14569 | 8370 ft | 4 kts | 96° |
| 2026-04-23 20:03 | 4.69760 | -74.14593 | 8370 ft | 4 kts | 124° |
| 2026-04-23 20:04 | 4.69773 | -74.14610 | 8370 ft | 4 kts | 127° |
| 2026-04-23 20:04 | 4.69789 | -74.14631 | 8370 ft | 4 kts | 127° |
| 2026-04-23 20:04 | 4.69805 | -74.14653 | 8370 ft | 4 kts | 127° |
| 2026-04-23 20:04 | 4.69822 | -74.14674 | 8370 ft | 4 kts | 127° |
| 2026-04-23 20:05 | 4.69838 | -74.14696 | 8371 ft | 4 kts | 127° |
| 2026-04-23 20:05 | 4.69851 | -74.14713 | 8370 ft | 4 kts | 130° |
| 2026-04-23 20:05 | 4.69869 | -74.14726 | 8370 ft | 4 kts | 189° |
| 2026-04-23 20:05 | 4.69891 | -74.14715 | 8370 ft | 2 kts | 217° |
| 2026-04-23 20:06 | 4.69909 | -74.14702 | 8370 ft | 4 kts | 217° |
| 2026-04-23 20:06 | 4.69915 | -74.14697 | 8370 ft | 0 kts | 217° |
| 2026-04-23 20:08 | 4.69914 | -74.14698 | 8370 ft | 2 kts | 217° |
| 2026-04-23 20:08 | 4.69879 | -74.14724 | 8370 ft | 10 kts | 217° |
| 2026-04-23 20:08 | 4.69809 | -74.14776 | 8370 ft | 14 kts | 216° |
| 2026-04-23 20:08 | 4.69776 | -74.14801 | 8370 ft | 1 kts | 216° |
| 2026-04-23 20:09 | 4.69756 | -74.14811 | 8370 ft | 5 kts | 192° |
| 2026-04-23 20:09 | 4.69714 | -74.14787 | 8370 ft | 10 kts | 130° |
| 2026-04-23 20:09 | 4.69663 | -74.14720 | 8370 ft | 16 kts | 126° |
| 2026-04-23 20:09 | 4.69580 | -74.14608 | 8370 ft | 24 kts | 128° |
| 2026-04-23 20:10 | 4.69460 | -74.14451 | 8370 ft | 32 kts | 127° |
| 2026-04-23 20:10 | 4.69331 | -74.14281 | 8370 ft | 29 kts | 126° |
| 2026-04-23 20:10 | 4.69205 | -74.14117 | 8370 ft | 21 kts | 128° |
| 2026-04-23 20:10 | 4.69116 | -74.14102 | 8371 ft | 15 kts | 210° |
| 2026-04-23 20:11 | 4.69034 | -74.14175 | 8372 ft | 16 kts | 239° |
| 2026-04-23 20:11 | 4.69040 | -74.14257 | 8372 ft | 0 kts | 306° |
| 2026-04-23 20:11 | 4.69044 | -74.14262 | 8372 ft | 7 kts | 306° |
| 2026-04-23 20:11 | 4.69193 | -74.14461 | 8370 ft | 70 kts | 307° |
| 2026-04-23 20:12 | 4.69622 | -74.15030 | 8371 ft | 130 kts | 307° |
| 2026-04-23 20:12 | 4.70262 | -74.15876 | 8373 ft | 177 kts | 307° |
| 2026-04-23 20:12 | 4.71056 | -74.16932 | 8779 ft | 192 kts | 306° |
| 2026-04-23 20:12 | 4.71881 | -74.18013 | 9407 ft | 200 kts | 306° |
| 2026-04-23 20:13 | 4.72749 | -74.19158 | 9531 ft | 218 kts | 307° |
| 2026-04-23 20:13 | 4.73978 | -74.20184 | 9514 ft | 249 kts | 337° |
| 2026-04-23 20:13 | 4.75762 | -74.20334 | 9563 ft | 272 kts | 15° |
| 2026-04-23 20:13 | 4.77467 | -74.19526 | 10271 ft | 272 kts | 31° |
| 2026-04-23 20:14 | 4.79009 | -74.18418 | 10981 ft | 276 kts | 37° |
| 2026-04-23 20:14 | 4.80544 | -74.17243 | 11620 ft | 280 kts | 35° |
| 2026-04-23 20:14 | 4.82143 | -74.16089 | 11952 ft | 284 kts | 33° |
| 2026-04-23 20:14 | 4.83784 | -74.14989 | 12012 ft | 285 kts | 32° |
| 2026-04-23 20:15 | 4.85464 | -74.13946 | 11985 ft | 285 kts | 30° |
| 2026-04-23 20:15 | 4.87179 | -74.12940 | 12648 ft | 285 kts | 28° |
| 2026-04-23 20:15 | 4.88830 | -74.11814 | 13182 ft | 296 kts | 38° |
| 2026-04-23 20:15 | 4.90402 | -74.10373 | 13369 ft | 318 kts | 44° |
| 2026-04-23 20:16 | 4.91999 | -74.08726 | 13507 ft | 340 kts | 46° |
| 2026-04-23 20:16 | 4.93666 | -74.06953 | 13493 ft | 355 kts | 46° |
| 2026-04-23 20:16 | 4.95383 | -74.05140 | 14049 ft | 361 kts | 46° |
| 2026-04-23 20:16 | 4.97139 | -74.03323 | 14580 ft | 366 kts | 44° |
| 2026-04-23 20:17 | 4.98940 | -74.01497 | 15147 ft | 369 kts | 45° |
| 2026-04-23 20:17 | 5.00769 | -73.99689 | 15696 ft | 371 kts | 40° |
| 2026-04-23 20:17 | 5.02952 | -73.98334 | 16243 ft | 371 kts | 20° |
| 2026-04-23 20:17 | 5.05412 | -73.97511 | 16609 ft | 373 kts | 14° |
| 2026-04-23 20:18 | 5.07929 | -73.96861 | 16698 ft | 373 kts | 12° |
| 2026-04-23 20:18 | 5.10461 | -73.96305 | 16699 ft | 372 kts | 11° |
| 2026-04-23 20:18 | 5.12996 | -73.95772 | 16687 ft | 372 kts | 10° |
| 2026-04-23 20:18 | 5.15530 | -73.95222 | 16768 ft | 374 kts | 11° |
| 2026-04-23 20:19 | 5.18078 | -73.94635 | 17339 ft | 377 kts | 12° |
| 2026-04-23 20:19 | 5.20640 | -73.94016 | 17890 ft | 380 kts | 12° |
| 2026-04-23 20:19 | 5.23218 | -73.93374 | 18384 ft | 384 kts | 12° |
| 2026-04-23 20:19 | 5.25815 | -73.92717 | 18901 ft | 386 kts | 13° |
| 2026-04-23 20:20 | 5.28424 | -73.92057 | 19371 ft | 388 kts | 11° |
| 2026-04-23 20:20 | 5.31044 | -73.91397 | 19849 ft | 390 kts | 12° |
| 2026-04-23 20:20 | 5.33686 | -73.90733 | 20337 ft | 392 kts | 12° |
| 2026-04-23 20:20 | 5.36344 | -73.90067 | 20822 ft | 395 kts | 12° |
| 2026-04-23 20:21 | 5.39018 | -73.89400 | 21292 ft | 397 kts | 12° |
| 2026-04-23 20:21 | 5.41709 | -73.88730 | 21782 ft | 399 kts | 13° |
| 2026-04-23 20:21 | 5.44417 | -73.88058 | 22265 ft | 402 kts | 12° |
| 2026-04-23 20:21 | 5.47141 | -73.87380 | 22747 ft | 404 kts | 12° |
| 2026-04-23 20:22 | 5.49882 | -73.86696 | 23205 ft | 408 kts | 12° |
| 2026-04-23 20:22 | 5.52631 | -73.85934 | 23603 ft | 413 kts | 18° |
| 2026-04-23 20:22 | 5.55259 | -73.84738 | 23960 ft | 417 kts | 28° |
| 2026-04-23 20:22 | 5.57801 | -73.83310 | 24300 ft | 420 kts | 28° |
| 2026-04-23 20:23 | 5.60360 | -73.81876 | 24662 ft | 422 kts | 28° |
| 2026-04-23 20:23 | 5.62935 | -73.80435 | 25005 ft | 425 kts | 28° |
| 2026-04-23 20:23 | 5.65529 | -73.78987 | 25361 ft | 428 kts | 28° |
| 2026-04-23 20:23 | 5.68139 | -73.77533 | 25706 ft | 430 kts | 28° |
| 2026-04-23 20:24 | 5.70756 | -73.76071 | 26036 ft | 432 kts | 28° |
| 2026-04-23 20:24 | 5.73391 | -73.74595 | 26353 ft | 435 kts | 28° |
| 2026-04-23 20:24 | 5.76040 | -73.73110 | 26694 ft | 437 kts | 29° |
| 2026-04-23 20:24 | 5.78702 | -73.71617 | 26996 ft | 440 kts | 29° |
| 2026-04-23 20:25 | 5.81379 | -73.70117 | 27314 ft | 441 kts | 29° |
| 2026-04-23 20:25 | 5.84070 | -73.68611 | 27613 ft | 444 kts | 30° |
| 2026-04-23 20:25 | 5.86774 | -73.67098 | 27897 ft | 446 kts | 30° |
| 2026-04-23 20:25 | 5.89496 | -73.65577 | 28191 ft | 449 kts | 29° |
| 2026-04-23 20:26 | 5.92231 | -73.64050 | 28503 ft | 451 kts | 30° |
| 2026-04-23 20:26 | 5.94982 | -73.62511 | 28777 ft | 454 kts | 30° |
| 2026-04-23 20:26 | 5.97709 | -73.60985 | 28962 ft | 455 kts | 30° |
| 2026-04-23 20:26 | 6.00469 | -73.59440 | 28976 ft | 440 kts | 30° |
| 2026-04-23 20:27 | 6.03072 | -73.57986 | 28978 ft | 429 kts | 30° |
| 2026-04-23 20:27 | 6.08249 | -73.55088 | 28978 ft | 424 kts | 30° |
| 2026-04-23 20:28 | 6.13398 | -73.52200 | 28952 ft | 423 kts | 30° |
| 2026-04-23 20:28 | 6.18540 | -73.49319 | 28965 ft | 424 kts | 30° |
| 2026-04-23 20:29 | 6.21750 | -73.47519 | 28959 ft | 423 kts | 30° |
| 2026-04-23 20:29 | 6.26897 | -73.44633 | 28952 ft | 424 kts | 30° |
| 2026-04-23 20:30 | 6.32047 | -73.41747 | 28936 ft | 424 kts | 30° |
| 2026-04-23 20:30 | 6.39765 | -73.37411 | 28937 ft | 424 kts | 30° |
| 2026-04-23 20:31 | 6.44919 | -73.34524 | 28949 ft | 424 kts | 30° |
| 2026-04-23 20:31 | 6.50073 | -73.31637 | 28950 ft | 424 kts | 30° |
| 2026-04-23 20:32 | 6.55222 | -73.28746 | 28947 ft | 424 kts | 30° |
| 2026-04-23 20:32 | 6.60366 | -73.25857 | 28946 ft | 423 kts | 30° |
| 2026-04-23 20:33 | 6.65492 | -73.22982 | 28751 ft | 417 kts | 30° |
| 2026-04-23 20:33 | 6.67997 | -73.21577 | 28495 ft | 410 kts | 29° |
| 2026-04-23 20:33 | 6.70477 | -73.20186 | 28234 ft | 407 kts | 30° |
| 2026-04-23 20:34 | 6.72942 | -73.18802 | 27989 ft | 404 kts | 29° |
| 2026-04-23 20:34 | 6.75393 | -73.17424 | 27745 ft | 403 kts | 30° |
| 2026-04-23 20:34 | 6.77835 | -73.16050 | 27493 ft | 401 kts | 29° |
| 2026-04-23 20:34 | 6.80266 | -73.14683 | 27243 ft | 400 kts | 29° |
| 2026-04-23 20:35 | 6.82688 | -73.13317 | 27006 ft | 398 kts | 29° |
| 2026-04-23 20:35 | 6.85100 | -73.11957 | 26766 ft | 397 kts | 29° |
| 2026-04-23 20:35 | 6.87506 | -73.10603 | 26527 ft | 395 kts | 29° |
| 2026-04-23 20:35 | 6.89901 | -73.09258 | 26280 ft | 394 kts | 29° |
| 2026-04-23 20:36 | 6.92258 | -73.07937 | 26086 ft | 392 kts | 29° |
| 2026-04-23 20:36 | 6.94664 | -73.06587 | 25857 ft | 390 kts | 29° |
| 2026-04-23 20:36 | 6.97026 | -73.05262 | 25620 ft | 389 kts | 28° |
| 2026-04-23 20:36 | 6.99353 | -73.03955 | 25408 ft | 387 kts | 28° |
| 2026-04-23 20:37 | 7.01701 | -73.02632 | 25180 ft | 386 kts | 28° |
| 2026-04-23 20:37 | 7.04035 | -73.01315 | 24954 ft | 384 kts | 28° |
| 2026-04-23 20:37 | 7.06363 | -73.00002 | 24730 ft | 383 kts | 28° |
| 2026-04-23 20:37 | 7.08679 | -72.98696 | 24508 ft | 381 kts | 28° |
| 2026-04-23 20:38 | 7.10987 | -72.97398 | 24288 ft | 379 kts | 28° |
| 2026-04-23 20:38 | 7.13280 | -72.96110 | 24070 ft | 377 kts | 28° |
| 2026-04-23 20:38 | 7.15569 | -72.94822 | 23885 ft | 376 kts | 28° |
| 2026-04-23 20:38 | 7.17849 | -72.93538 | 23669 ft | 375 kts | 28° |
| 2026-04-23 20:39 | 7.20122 | -72.92259 | 23416 ft | 373 kts | 28° |
| 2026-04-23 20:39 | 7.22372 | -72.90991 | 23015 ft | 369 kts | 28° |
| 2026-04-23 20:39 | 7.24610 | -72.89730 | 22546 ft | 368 kts | 28° |
| 2026-04-23 20:39 | 7.26846 | -72.88472 | 22080 ft | 368 kts | 28° |
| 2026-04-23 20:40 | 7.29076 | -72.87217 | 21629 ft | 367 kts | 28° |
| 2026-04-23 20:40 | 7.30581 | -72.86372 | 21322 ft | 366 kts | 28° |
| 2026-04-23 20:40 | 7.32802 | -72.85123 | 20871 ft | 365 kts | 28° |
| 2026-04-23 20:40 | 7.35015 | -72.83875 | 20417 ft | 364 kts | 28° |
| 2026-04-23 20:41 | 7.37226 | -72.82627 | 19975 ft | 364 kts | 28° |
| 2026-04-23 20:41 | 7.39435 | -72.81383 | 19528 ft | 364 kts | 28° |
| 2026-04-23 20:41 | 7.41637 | -72.80142 | 19087 ft | 363 kts | 28° |
| 2026-04-23 20:41 | 7.43839 | -72.78900 | 18646 ft | 362 kts | 28° |
| 2026-04-23 20:42 | 7.46038 | -72.77659 | 18174 ft | 362 kts | 28° |
| 2026-04-23 20:42 | 7.48235 | -72.76420 | 17718 ft | 361 kts | 28° |
| 2026-04-23 20:42 | 7.50420 | -72.75188 | 17253 ft | 360 kts | 28° |
| 2026-04-23 20:42 | 7.52595 | -72.73969 | 16964 ft | 353 kts | 27° |
| 2026-04-23 20:43 | 7.54699 | -72.72802 | 16532 ft | 342 kts | 27° |
| 2026-04-23 20:43 | 7.56791 | -72.71647 | 15709 ft | 343 kts | 28° |
| 2026-04-23 20:43 | 7.58889 | -72.70487 | 14911 ft | 344 kts | 28° |
| 2026-04-23 20:43 | 7.60991 | -72.69323 | 14131 ft | 345 kts | 27° |
| 2026-04-23 20:44 | 7.63091 | -72.68159 | 13363 ft | 342 kts | 28° |
| 2026-04-23 20:44 | 7.65150 | -72.67017 | 12664 ft | 335 kts | 28° |
| 2026-04-23 20:44 | 7.67186 | -72.65886 | 11885 ft | 333 kts | 27° |
| 2026-04-23 20:44 | 7.69208 | -72.64764 | 11106 ft | 330 kts | 27° |
| 2026-04-23 20:45 | 7.71191 | -72.63664 | 10618 ft | 319 kts | 28° |
| 2026-04-23 20:45 | 7.73100 | -72.62603 | 10159 ft | 308 kts | 28° |
| 2026-04-23 20:45 | 7.74940 | -72.61580 | 9938 ft | 298 kts | 28° |
| 2026-04-23 20:45 | 7.76753 | -72.60574 | 9869 ft | 298 kts | 28° |
| 2026-04-23 20:46 | 7.78569 | -72.59567 | 9753 ft | 299 kts | 27° |
| 2026-04-23 20:46 | 7.80387 | -72.58559 | 9606 ft | 297 kts | 28° |
| 2026-04-23 20:46 | 7.82194 | -72.57554 | 9485 ft | 296 kts | 28° |
| 2026-04-23 20:46 | 7.83998 | -72.56551 | 9346 ft | 296 kts | 28° |
| 2026-04-23 20:47 | 7.85798 | -72.55552 | 9223 ft | 295 kts | 28° |
| 2026-04-23 20:47 | 7.87569 | -72.54570 | 9116 ft | 294 kts | 28° |
| 2026-04-23 20:47 | 7.89361 | -72.53577 | 8974 ft | 293 kts | 28° |
| 2026-04-23 20:47 | 7.91142 | -72.52588 | 8855 ft | 293 kts | 28° |
| 2026-04-23 20:48 | 7.92949 | -72.51650 | 8546 ft | 291 kts | 19° |
| 2026-04-23 20:48 | 7.94905 | -72.51267 | 8388 ft | 286 kts | 3° |
| 2026-04-23 20:48 | 7.96896 | -72.51148 | 8235 ft | 286 kts | 2° |
| 2026-04-23 20:48 | 7.98882 | -72.51028 | 7804 ft | 286 kts | 3° |
| 2026-04-23 20:49 | 8.00863 | -72.50907 | 7423 ft | 285 kts | 3° |
| 2026-04-23 20:49 | 8.02833 | -72.50786 | 7070 ft | 283 kts | 3° |
| 2026-04-23 20:49 | 8.04791 | -72.50673 | 6687 ft | 281 kts | 1° |
| 2026-04-23 20:49 | 8.06681 | -72.51048 | 6320 ft | 278 kts | 333° |
| 2026-04-23 20:50 | 8.08119 | -72.52310 | 5916 ft | 276 kts | 302° |
| 2026-04-23 20:50 | 8.08723 | -72.54118 | 5511 ft | 274 kts | 272° |
| 2026-04-23 20:50 | 8.08348 | -72.55974 | 5137 ft | 271 kts | 241° |
| 2026-04-23 20:50 | 8.07155 | -72.57357 | 5019 ft | 257 kts | 213° |
| 2026-04-23 20:51 | 8.05548 | -72.58000 | 4895 ft | 245 kts | 186° |
| 2026-04-23 20:51 | 8.03908 | -72.57853 | 4771 ft | 233 kts | 160° |
| 2026-04-23 20:51 | 8.02517 | -72.57107 | 4648 ft | 223 kts | 148° |
| 2026-04-23 20:51 | 8.01212 | -72.56326 | 4515 ft | 213 kts | 155° |
| 2026-04-23 20:52 | 7.99827 | -72.55946 | 4438 ft | 200 kts | 168° |
| 2026-04-23 20:52 | 7.98507 | -72.55663 | 4309 ft | 187 kts | 167° |
| 2026-04-23 20:52 | 7.97275 | -72.55389 | 4074 ft | 178 kts | 167° |
| 2026-04-23 20:52 | 7.96077 | -72.55120 | 3765 ft | 175 kts | 166° |
| 2026-04-23 20:53 | 7.94910 | -72.54860 | 3449 ft | 168 kts | 165° |
| 2026-04-23 20:53 | 7.93776 | -72.54607 | 3043 ft | 167 kts | 167° |
| 2026-04-23 20:53 | 7.92631 | -72.54352 | 2638 ft | 169 kts | 167° |
| 2026-04-23 20:53 | 7.91492 | -72.54099 | 2607 ft | 170 kts | 167° |
| 2026-04-23 20:54 | 7.90350 | -72.53845 | 2582 ft | 164 kts | 167° |
| 2026-04-23 20:54 | 7.89244 | -72.53600 | 2598 ft | 162 kts | 167° |
| 2026-04-23 20:54 | 7.88147 | -72.53356 | 2605 ft | 161 kts | 167° |
| 2026-04-23 20:54 | 7.87056 | -72.53114 | 2604 ft | 160 kts | 167° |
| 2026-04-23 20:55 | 7.85968 | -72.52861 | 2601 ft | 160 kts | 161° |
| 2026-04-23 20:55 | 7.85023 | -72.52294 | 2607 ft | 160 kts | 134° |
| 2026-04-23 20:55 | 7.84413 | -72.51377 | 2544 ft | 156 kts | 110° |
| 2026-04-23 20:55 | 7.84252 | -72.50317 | 2246 ft | 150 kts | 85° |
| 2026-04-23 20:56 | 7.84521 | -72.49336 | 2053 ft | 144 kts | 62° |
| 2026-04-23 20:56 | 7.85141 | -72.48546 | 2007 ft | 144 kts | 39° |
| 2026-04-23 20:56 | 7.86019 | -72.48058 | 2015 ft | 146 kts | 17° |
| 2026-04-23 20:56 | 7.87016 | -72.47954 | 1984 ft | 145 kts | 353° |
| 2026-04-23 20:57 | 7.87977 | -72.48258 | 2002 ft | 146 kts | 330° |
| 2026-04-23 20:57 | 7.88854 | -72.48798 | 1853 ft | 148 kts | 329° |
| 2026-04-23 20:57 | 7.89737 | -72.49333 | 1653 ft | 148 kts | 330° |
| 2026-04-23 20:57 | 7.90621 | -72.49869 | 1453 ft | 151 kts | 328° |
| 2026-04-23 20:58 | 7.91517 | -72.50427 | 1249 ft | 150 kts | 330° |
| 2026-04-23 20:58 | 7.92418 | -72.50966 | 1053 ft | 150 kts | 330° |
| 2026-04-23 20:58 | 7.93221 | -72.51449 | 1042 ft | 110 kts | 328° |
| 2026-04-23 20:58 | 7.93651 | -72.51717 | 1074 ft | 39 kts | 328° |
| 2026-04-23 20:59 | 7.93816 | -72.51850 | 1087 ft | 24 kts | 297° |
| 2026-04-23 20:59 | 7.93893 | -72.51983 | 1096 ft | 19 kts | 316° |
| 2026-04-23 20:59 | 7.93991 | -72.52036 | 1101 ft | 13 kts | 4° |
| 2026-04-23 20:59 | 7.94041 | -72.51974 | 1101 ft | 11 kts | 77° |
| 2026-04-23 21:00 | 7.93978 | -72.51912 | 1097 ft | 18 kts | 149° |
| 2026-04-23 21:00 | 7.93834 | -72.51826 | 1085 ft | 29 kts | 149° |
| 2026-04-23 21:00 | 7.93632 | -72.51700 | 1073 ft | 39 kts | 148° |
| 2026-04-23 21:00 | 7.93375 | -72.51546 | 1052 ft | 46 kts | 149° |
| 2026-04-23 21:01 | 7.93087 | -72.51370 | 1039 ft | 49 kts | 150° |
| 2026-04-23 21:01 | 7.92841 | -72.51224 | 1033 ft | 32 kts | 146° |
| 2026-04-23 21:01 | 7.92738 | -72.51122 | 1032 ft | 16 kts | 86° |
| 2026-04-23 21:01 | 7.92760 | -72.51065 | 1031 ft | 2 kts | 62° |
| 2026-04-23 21:02 | 7.92772 | -72.51042 | 1032 ft | 6 kts | 68° |
| 2026-04-23 21:02 | 7.92800 | -72.50996 | 1032 ft | 15 kts | 31° |
| 2026-04-23 21:02 | 7.92878 | -72.50930 | 1032 ft | 13 kts | 32° |
| 2026-04-23 21:02 | 7.92918 | -72.50917 | 1032 ft | 1 kts | 20° |
| 2026-04-23 21:03 | 7.92937 | -72.50908 | 1032 ft | 0 kts | 26° |